sensor_id;sensor_type;location;lat;lon;timestamp;P1;durP1;ratioP1;P2;durP2;ratioP2
26600;SDS011;14241;49.260;10.496;2024-02-21T00:00:39;18.77;;;5.47;;
26600;SDS011;14241;49.260;10.496;2024-02-21T00:03:05;16.25;;;4.60;;
26600;SDS011;14241;49.260;10.496;2024-02-21T00:05:31;12.60;;;5.15;;
26600;SDS011;14241;49.260;10.496;2024-02-21T00:07:58;18.33;;;5.35;;
26600;SDS011;14241;49.260;10.496;2024-02-21T00:10:24;16.73;;;5.50;;
26600;SDS011;14241;49.260;10.496;2024-02-21T00:12:50;17.02;;;4.97;;
26600;SDS011;14241;49.260;10.496;2024-02-21T00:15:15;16.15;;;5.20;;
26600;SDS011;14241;49.260;10.496;2024-02-21T00:17:40;16.20;;;5.55;;
26600;SDS011;14241;49.260;10.496;2024-02-21T00:20:06;16.73;;;5.43;;
26600;SDS011;14241;49.260;10.496;2024-02-21T00:22:31;15.18;;;6.00;;
26600;SDS011;14241;49.260;10.496;2024-02-21T00:24:58;15.48;;;5.30;;
26600;SDS011;14241;49.260;10.496;2024-02-21T00:27:24;16.33;;;5.95;;
26600;SDS011;14241;49.260;10.496;2024-02-21T00:29:49;14.45;;;5.47;;
26600;SDS011;14241;49.260;10.496;2024-02-21T00:32:15;19.15;;;5.88;;
26600;SDS011;14241;49.260;10.496;2024-02-21T00:34:40;19.75;;;6.30;;
26600;SDS011;14241;49.260;10.496;2024-02-21T00:37:06;15.55;;;6.15;;
26600;SDS011;14241;49.260;10.496;2024-02-21T00:39:31;15.52;;;5.57;;
26600;SDS011;14241;49.260;10.496;2024-02-21T00:41:56;18.33;;;6.55;;
26600;SDS011;14241;49.260;10.496;2024-02-21T00:44:22;15.50;;;5.80;;
26600;SDS011;14241;49.260;10.496;2024-02-21T00:46:47;18.55;;;5.57;;
26600;SDS011;14241;49.260;10.496;2024-02-21T00:49:12;11.20;;;4.65;;
26600;SDS011;14241;49.260;10.496;2024-02-21T00:51:38;13.20;;;5.35;;
26600;SDS011;14241;49.260;10.496;2024-02-21T00:54:03;13.88;;;5.82;;
26600;SDS011;14241;49.260;10.496;2024-02-21T00:56:28;12.55;;;5.55;;
26600;SDS011;14241;49.260;10.496;2024-02-21T00:58:54;16.65;;;5.95;;
26600;SDS011;14241;49.260;10.496;2024-02-21T01:01:20;14.20;;;5.35;;
26600;SDS011;14241;49.260;10.496;2024-02-21T01:03:46;14.63;;;5.80;;
26600;SDS011;14241;49.260;10.496;2024-02-21T01:06:11;13.90;;;5.85;;
26600;SDS011;14241;49.260;10.496;2024-02-21T01:08:36;15.45;;;5.38;;
26600;SDS011;14241;49.260;10.496;2024-02-21T01:11:02;14.98;;;5.30;;
26600;SDS011;14241;49.260;10.496;2024-02-21T01:13:27;18.02;;;5.82;;
26600;SDS011;14241;49.260;10.496;2024-02-21T01:15:52;17.08;;;5.32;;
26600;SDS011;14241;49.260;10.496;2024-02-21T01:18:18;16.50;;;4.95;;
26600;SDS011;14241;49.260;10.496;2024-02-21T01:20:43;11.75;;;4.85;;
26600;SDS011;14241;49.260;10.496;2024-02-21T01:23:08;16.30;;;5.28;;
26600;SDS011;14241;49.260;10.496;2024-02-21T01:25:34;17.02;;;5.28;;
26600;SDS011;14241;49.260;10.496;2024-02-21T01:27:59;15.55;;;4.90;;
26600;SDS011;14241;49.260;10.496;2024-02-21T01:30:24;15.07;;;4.85;;
26600;SDS011;14241;49.260;10.496;2024-02-21T01:32:49;14.40;;;5.20;;
26600;SDS011;14241;49.260;10.496;2024-02-21T01:35:15;14.07;;;5.35;;
26600;SDS011;14241;49.260;10.496;2024-02-21T01:37:40;14.00;;;5.72;;
26600;SDS011;14241;49.260;10.496;2024-02-21T01:40:06;16.58;;;5.10;;
26600;SDS011;14241;49.260;10.496;2024-02-21T01:42:31;11.80;;;4.43;;
26600;SDS011;14241;49.260;10.496;2024-02-21T01:44:56;13.63;;;4.90;;
26600;SDS011;14241;49.260;10.496;2024-02-21T01:47:22;15.18;;;5.30;;
26600;SDS011;14241;49.260;10.496;2024-02-21T01:49:47;16.20;;;5.18;;
26600;SDS011;14241;49.260;10.496;2024-02-21T01:52:14;16.40;;;4.78;;
26600;SDS011;14241;49.260;10.496;2024-02-21T01:54:40;16.23;;;4.72;;
26600;SDS011;14241;49.260;10.496;2024-02-21T01:57:06;16.27;;;5.20;;
26600;SDS011;14241;49.260;10.496;2024-02-21T01:59:31;16.45;;;5.15;;
26600;SDS011;14241;49.260;10.496;2024-02-21T02:01:56;18.80;;;5.47;;
26600;SDS011;14241;49.260;10.496;2024-02-21T02:04:23;12.27;;;4.90;;
26600;SDS011;14241;49.260;10.496;2024-02-21T02:06:50;16.70;;;5.07;;
26600;SDS011;14241;49.260;10.496;2024-02-21T02:09:15;16.38;;;5.38;;
26600;SDS011;14241;49.260;10.496;2024-02-21T02:11:42;17.10;;;4.43;;
26600;SDS011;14241;49.260;10.496;2024-02-21T02:14:07;15.23;;;4.97;;
26600;SDS011;14241;49.260;10.496;2024-02-21T02:16:32;17.52;;;4.78;;
26600;SDS011;14241;49.260;10.496;2024-02-21T02:18:57;16.10;;;5.03;;
26600;SDS011;14241;49.260;10.496;2024-02-21T02:21:27;15.20;;;4.88;;
26600;SDS011;14241;49.260;10.496;2024-02-21T02:23:53;13.25;;;4.45;;
26600;SDS011;14241;49.260;10.496;2024-02-21T02:26:19;14.95;;;4.75;;
26600;SDS011;14241;49.260;10.496;2024-02-21T02:28:44;14.80;;;4.88;;
26600;SDS011;14241;49.260;10.496;2024-02-21T02:31:09;14.95;;;4.72;;
26600;SDS011;14241;49.260;10.496;2024-02-21T02:33:35;14.07;;;5.25;;
26600;SDS011;14241;49.260;10.496;2024-02-21T02:36:00;11.35;;;4.80;;
26600;SDS011;14241;49.260;10.496;2024-02-21T02:38:25;13.65;;;4.45;;
26600;SDS011;14241;49.260;10.496;2024-02-21T02:40:51;12.90;;;4.68;;
26600;SDS011;14241;49.260;10.496;2024-02-21T02:43:16;14.90;;;4.38;;
26600;SDS011;14241;49.260;10.496;2024-02-21T02:45:41;13.35;;;4.57;;
26600;SDS011;14241;49.260;10.496;2024-02-21T02:48:07;13.40;;;4.95;;
26600;SDS011;14241;49.260;10.496;2024-02-21T02:50:32;17.88;;;5.85;;
26600;SDS011;14241;49.260;10.496;2024-02-21T02:52:57;14.05;;;7.00;;
26600;SDS011;14241;49.260;10.496;2024-02-21T02:55:23;17.70;;;8.38;;
26600;SDS011;14241;49.260;10.496;2024-02-21T02:57:48;19.40;;;9.02;;
26600;SDS011;14241;49.260;10.496;2024-02-21T03:00:14;14.82;;;6.63;;
26600;SDS011;14241;49.260;10.496;2024-02-21T03:02:40;18.58;;;5.80;;
26600;SDS011;14241;49.260;10.496;2024-02-21T03:05:12;20.20;;;7.05;;
26600;SDS011;14241;49.260;10.496;2024-02-21T03:07:38;18.83;;;7.72;;
26600;SDS011;14241;49.260;10.496;2024-02-21T03:10:04;12.93;;;4.25;;
26600;SDS011;14241;49.260;10.496;2024-02-21T03:12:29;16.33;;;5.00;;
26600;SDS011;14241;49.260;10.496;2024-02-21T03:14:55;12.48;;;4.63;;
26600;SDS011;14241;49.260;10.496;2024-02-21T03:17:20;13.40;;;4.22;;
26600;SDS011;14241;49.260;10.496;2024-02-21T03:19:46;14.25;;;4.85;;
26600;SDS011;14241;49.260;10.496;2024-02-21T03:22:11;14.52;;;6.68;;
26600;SDS011;14241;49.260;10.496;2024-02-21T03:24:36;12.77;;;4.57;;
26600;SDS011;14241;49.260;10.496;2024-02-21T03:27:01;16.50;;;6.82;;
26600;SDS011;14241;49.260;10.496;2024-02-21T03:29:27;15.65;;;5.30;;
26600;SDS011;14241;49.260;10.496;2024-02-21T03:31:52;15.88;;;5.75;;
26600;SDS011;14241;49.260;10.496;2024-02-21T03:34:17;16.35;;;4.68;;
26600;SDS011;14241;49.260;10.496;2024-02-21T03:36:43;19.00;;;5.10;;
26600;SDS011;14241;49.260;10.496;2024-02-21T03:39:08;17.58;;;5.50;;
26600;SDS011;14241;49.260;10.496;2024-02-21T03:41:34;23.45;;;7.70;;
26600;SDS011;14241;49.260;10.496;2024-02-21T03:43:59;19.33;;;6.82;;
26600;SDS011;14241;49.260;10.496;2024-02-21T03:46:25;20.60;;;7.13;;
26600;SDS011;14241;49.260;10.496;2024-02-21T03:48:50;14.13;;;5.43;;
26600;SDS011;14241;49.260;10.496;2024-02-21T03:51:15;18.88;;;5.05;;
26600;SDS011;14241;49.260;10.496;2024-02-21T03:53:41;12.45;;;4.50;;
26600;SDS011;14241;49.260;10.496;2024-02-21T03:56:06;16.38;;;4.90;;
26600;SDS011;14241;49.260;10.496;2024-02-21T03:58:32;13.30;;;4.88;;
26600;SDS011;14241;49.260;10.496;2024-02-21T04:01:00;13.32;;;4.72;;
26600;SDS011;14241;49.260;10.496;2024-02-21T04:03:25;14.43;;;4.05;;
26600;SDS011;14241;49.260;10.496;2024-02-21T04:05:50;14.30;;;4.40;;
26600;SDS011;14241;49.260;10.496;2024-02-21T04:08:16;14.73;;;5.30;;
26600;SDS011;14241;49.260;10.496;2024-02-21T04:10:41;18.17;;;5.43;;
26600;SDS011;14241;49.260;10.496;2024-02-21T04:13:06;13.18;;;4.75;;
26600;SDS011;14241;49.260;10.496;2024-02-21T04:15:32;14.73;;;4.95;;
26600;SDS011;14241;49.260;10.496;2024-02-21T04:17:57;14.57;;;5.05;;
26600;SDS011;14241;49.260;10.496;2024-02-21T04:20:23;10.05;;;4.32;;
26600;SDS011;14241;49.260;10.496;2024-02-21T04:22:48;12.00;;;4.45;;
26600;SDS011;14241;49.260;10.496;2024-02-21T04:25:13;14.02;;;4.82;;
26600;SDS011;14241;49.260;10.496;2024-02-21T04:27:39;15.90;;;4.82;;
26600;SDS011;14241;49.260;10.496;2024-02-21T04:30:04;15.88;;;4.75;;
26600;SDS011;14241;49.260;10.496;2024-02-21T04:32:30;19.45;;;5.20;;
26600;SDS011;14241;49.260;10.496;2024-02-21T04:34:55;13.90;;;4.57;;
26600;SDS011;14241;49.260;10.496;2024-02-21T04:37:20;16.23;;;5.40;;
26600;SDS011;14241;49.260;10.496;2024-02-21T04:39:46;14.45;;;4.82;;
26600;SDS011;14241;49.260;10.496;2024-02-21T04:42:11;22.77;;;5.38;;
26600;SDS011;14241;49.260;10.496;2024-02-21T04:44:37;16.30;;;5.05;;
26600;SDS011;14241;49.260;10.496;2024-02-21T04:47:03;16.40;;;5.55;;
26600;SDS011;14241;49.260;10.496;2024-02-21T04:49:29;13.27;;;4.90;;
26600;SDS011;14241;49.260;10.496;2024-02-21T04:51:54;12.32;;;5.25;;
26600;SDS011;14241;49.260;10.496;2024-02-21T04:54:19;16.27;;;5.20;;
26600;SDS011;14241;49.260;10.496;2024-02-21T04:56:45;10.85;;;4.40;;
26600;SDS011;14241;49.260;10.496;2024-02-21T04:59:10;13.75;;;5.03;;
26600;SDS011;14241;49.260;10.496;2024-02-21T05:01:35;16.52;;;4.97;;
26600;SDS011;14241;49.260;10.496;2024-02-21T05:04:01;14.25;;;5.45;;
26600;SDS011;14241;49.260;10.496;2024-02-21T05:06:26;19.60;;;4.93;;
26600;SDS011;14241;49.260;10.496;2024-02-21T05:08:51;15.38;;;4.57;;
26600;SDS011;14241;49.260;10.496;2024-02-21T05:11:16;17.50;;;5.45;;
26600;SDS011;14241;49.260;10.496;2024-02-21T05:13:42;16.10;;;5.72;;
26600;SDS011;14241;49.260;10.496;2024-02-21T05:16:08;16.83;;;5.05;;
26600;SDS011;14241;49.260;10.496;2024-02-21T05:18:33;12.80;;;5.25;;
26600;SDS011;14241;49.260;10.496;2024-02-21T05:20:59;16.38;;;6.05;;
26600;SDS011;14241;49.260;10.496;2024-02-21T05:23:24;15.27;;;5.28;;
26600;SDS011;14241;49.260;10.496;2024-02-21T05:25:50;14.38;;;5.25;;
26600;SDS011;14241;49.260;10.496;2024-02-21T05:28:16;16.70;;;4.63;;
26600;SDS011;14241;49.260;10.496;2024-02-21T05:30:41;16.13;;;5.95;;
26600;SDS011;14241;49.260;10.496;2024-02-21T05:33:08;21.13;;;5.97;;
26600;SDS011;14241;49.260;10.496;2024-02-21T05:35:33;13.55;;;5.22;;
26600;SDS011;14241;49.260;10.496;2024-02-21T05:37:59;17.50;;;5.53;;
26600;SDS011;14241;49.260;10.496;2024-02-21T05:40:24;11.80;;;5.63;;
26600;SDS011;14241;49.260;10.496;2024-02-21T05:42:50;15.55;;;5.50;;
26600;SDS011;14241;49.260;10.496;2024-02-21T05:45:17;15.93;;;6.20;;
26600;SDS011;14241;49.260;10.496;2024-02-21T05:47:42;16.58;;;6.70;;
26600;SDS011;14241;49.260;10.496;2024-02-21T05:50:08;16.55;;;6.40;;
26600;SDS011;14241;49.260;10.496;2024-02-21T05:52:33;14.82;;;5.78;;
26600;SDS011;14241;49.260;10.496;2024-02-21T05:54:59;16.25;;;5.57;;
26600;SDS011;14241;49.260;10.496;2024-02-21T05:57:24;19.02;;;5.75;;
26600;SDS011;14241;49.260;10.496;2024-02-21T05:59:49;17.10;;;6.05;;
26600;SDS011;14241;49.260;10.496;2024-02-21T06:02:15;13.90;;;6.32;;
26600;SDS011;14241;49.260;10.496;2024-02-21T06:04:40;17.70;;;5.70;;
26600;SDS011;14241;49.260;10.496;2024-02-21T06:07:05;14.40;;;5.10;;
26600;SDS011;14241;49.260;10.496;2024-02-21T06:09:30;13.88;;;5.57;;
26600;SDS011;14241;49.260;10.496;2024-02-21T06:11:57;17.10;;;5.70;;
26600;SDS011;14241;49.260;10.496;2024-02-21T06:14:23;9.98;;;4.75;;
26600;SDS011;14241;49.260;10.496;2024-02-21T06:16:49;15.73;;;5.47;;
26600;SDS011;14241;49.260;10.496;2024-02-21T06:19:14;15.25;;;5.43;;
26600;SDS011;14241;49.260;10.496;2024-02-21T06:21:39;16.80;;;5.25;;
26600;SDS011;14241;49.260;10.496;2024-02-21T06:24:05;15.90;;;5.15;;
26600;SDS011;14241;49.260;10.496;2024-02-21T06:26:30;13.80;;;4.90;;
26600;SDS011;14241;49.260;10.496;2024-02-21T06:28:55;13.02;;;4.78;;
26600;SDS011;14241;49.260;10.496;2024-02-21T06:31:21;13.88;;;5.45;;
26600;SDS011;14241;49.260;10.496;2024-02-21T06:33:46;9.73;;;4.15;;
26600;SDS011;14241;49.260;10.496;2024-02-21T06:36:11;12.73;;;5.05;;
26600;SDS011;14241;49.260;10.496;2024-02-21T06:38:37;13.75;;;4.88;;
26600;SDS011;14241;49.260;10.496;2024-02-21T06:41:02;15.13;;;5.50;;
26600;SDS011;14241;49.260;10.496;2024-02-21T06:43:27;12.95;;;5.38;;
26600;SDS011;14241;49.260;10.496;2024-02-21T06:45:53;13.32;;;5.35;;
26600;SDS011;14241;49.260;10.496;2024-02-21T06:48:19;29.30;;;10.90;;
26600;SDS011;14241;49.260;10.496;2024-02-21T06:50:45;24.33;;;11.63;;
26600;SDS011;14241;49.260;10.496;2024-02-21T06:53:10;42.35;;;19.33;;
26600;SDS011;14241;49.260;10.496;2024-02-21T06:55:35;46.42;;;24.27;;
26600;SDS011;14241;49.260;10.496;2024-02-21T06:58:01;46.13;;;23.50;;
26600;SDS011;14241;49.260;10.496;2024-02-21T07:00:28;44.05;;;24.85;;
26600;SDS011;14241;49.260;10.496;2024-02-21T07:02:53;47.53;;;28.02;;
26600;SDS011;14241;49.260;10.496;2024-02-21T07:05:18;25.45;;;14.43;;
26600;SDS011;14241;49.260;10.496;2024-02-21T07:07:44;15.60;;;6.47;;
26600;SDS011;14241;49.260;10.496;2024-02-21T07:10:09;15.45;;;8.18;;
26600;SDS011;14241;49.260;10.496;2024-02-21T07:12:35;15.40;;;7.60;;
26600;SDS011;14241;49.260;10.496;2024-02-21T07:15:04;21.50;;;11.75;;
26600;SDS011;14241;49.260;10.496;2024-02-21T07:17:29;16.38;;;7.07;;
26600;SDS011;14241;49.260;10.496;2024-02-21T07:19:54;14.98;;;6.85;;
26600;SDS011;14241;49.260;10.496;2024-02-21T07:22:22;13.15;;;6.10;;
26600;SDS011;14241;49.260;10.496;2024-02-21T07:24:47;14.98;;;6.03;;
26600;SDS011;14241;49.260;10.496;2024-02-21T07:27:15;15.70;;;5.80;;
26600;SDS011;14241;49.260;10.496;2024-02-21T07:29:40;12.95;;;5.53;;
26600;SDS011;14241;49.260;10.496;2024-02-21T07:32:05;15.98;;;6.50;;
26600;SDS011;14241;49.260;10.496;2024-02-21T07:34:31;14.40;;;5.50;;
26600;SDS011;14241;49.260;10.496;2024-02-21T07:36:56;13.48;;;5.18;;
26600;SDS011;14241;49.260;10.496;2024-02-21T07:39:22;11.82;;;5.13;;
26600;SDS011;14241;49.260;10.496;2024-02-21T07:41:47;13.23;;;5.00;;
26600;SDS011;14241;49.260;10.496;2024-02-21T07:44:14;14.13;;;5.53;;
26600;SDS011;14241;49.260;10.496;2024-02-21T07:46:39;12.73;;;4.68;;
26600;SDS011;14241;49.260;10.496;2024-02-21T07:49:05;11.43;;;4.15;;
26600;SDS011;14241;49.260;10.496;2024-02-21T07:51:30;13.02;;;4.45;;
26600;SDS011;14241;49.260;10.496;2024-02-21T07:53:55;11.63;;;4.20;;
26600;SDS011;14241;49.260;10.496;2024-02-21T07:56:21;8.18;;;3.80;;
26600;SDS011;14241;49.260;10.496;2024-02-21T07:58:46;10.65;;;4.25;;
26600;SDS011;14241;49.260;10.496;2024-02-21T08:01:11;9.85;;;4.45;;
26600;SDS011;14241;49.260;10.496;2024-02-21T08:03:37;12.98;;;4.70;;
26600;SDS011;14241;49.260;10.496;2024-02-21T08:06:02;11.75;;;5.10;;
26600;SDS011;14241;49.260;10.496;2024-02-21T08:08:28;14.80;;;6.85;;
26600;SDS011;14241;49.260;10.496;2024-02-21T08:10:53;17.90;;;6.43;;
26600;SDS011;14241;49.260;10.496;2024-02-21T08:13:18;16.27;;;7.43;;
26600;SDS011;14241;49.260;10.496;2024-02-21T08:15:44;10.30;;;5.18;;
26600;SDS011;14241;49.260;10.496;2024-02-21T08:18:09;13.70;;;4.18;;
26600;SDS011;14241;49.260;10.496;2024-02-21T08:20:34;9.20;;;3.60;;
26600;SDS011;14241;49.260;10.496;2024-02-21T08:23:00;10.23;;;3.58;;
26600;SDS011;14241;49.260;10.496;2024-02-21T08:25:25;10.88;;;3.33;;
26600;SDS011;14241;49.260;10.496;2024-02-21T08:27:51;11.05;;;3.17;;
26600;SDS011;14241;49.260;10.496;2024-02-21T08:30:19;7.30;;;3.00;;
26600;SDS011;14241;49.260;10.496;2024-02-21T08:32:45;9.27;;;3.05;;
26600;SDS011;14241;49.260;10.496;2024-02-21T08:35:10;10.48;;;3.55;;
26600;SDS011;14241;49.260;10.496;2024-02-21T08:37:35;9.15;;;3.20;;
26600;SDS011;14241;49.260;10.496;2024-02-21T08:40:01;11.27;;;3.42;;
26600;SDS011;14241;49.260;10.496;2024-02-21T08:42:33;8.48;;;2.80;;
26600;SDS011;14241;49.260;10.496;2024-02-21T08:44:58;10.57;;;2.92;;
26600;SDS011;14241;49.260;10.496;2024-02-21T08:47:24;9.98;;;3.35;;
26600;SDS011;14241;49.260;10.496;2024-02-21T08:49:49;8.00;;;2.83;;
26600;SDS011;14241;49.260;10.496;2024-02-21T08:52:14;12.38;;;3.50;;
26600;SDS011;14241;49.260;10.496;2024-02-21T08:54:40;6.80;;;2.60;;
26600;SDS011;14241;49.260;10.496;2024-02-21T08:57:05;7.68;;;3.30;;
26600;SDS011;14241;49.260;10.496;2024-02-21T08:59:30;11.05;;;3.58;;
26600;SDS011;14241;49.260;10.496;2024-02-21T09:01:55;9.35;;;3.08;;
26600;SDS011;14241;49.260;10.496;2024-02-21T09:04:21;8.05;;;3.20;;
26600;SDS011;14241;49.260;10.496;2024-02-21T09:06:46;8.32;;;3.10;;
26600;SDS011;14241;49.260;10.496;2024-02-21T09:09:12;7.55;;;2.88;;
26600;SDS011;14241;49.260;10.496;2024-02-21T09:11:37;13.15;;;3.25;;
26600;SDS011;14241;49.260;10.496;2024-02-21T09:14:03;11.27;;;3.15;;
26600;SDS011;14241;49.260;10.496;2024-02-21T09:16:30;10.07;;;3.03;;
26600;SDS011;14241;49.260;10.496;2024-02-21T09:18:55;10.30;;;3.00;;
26600;SDS011;14241;49.260;10.496;2024-02-21T09:21:22;7.07;;;2.90;;
26600;SDS011;14241;49.260;10.496;2024-02-21T09:23:47;10.93;;;3.60;;
26600;SDS011;14241;49.260;10.496;2024-02-21T09:26:13;9.55;;;2.70;;
26600;SDS011;14241;49.260;10.496;2024-02-21T09:28:41;10.20;;;3.67;;
26600;SDS011;14241;49.260;10.496;2024-02-21T09:31:06;11.13;;;3.80;;
26600;SDS011;14241;49.260;10.496;2024-02-21T09:33:31;9.35;;;2.60;;
26600;SDS011;14241;49.260;10.496;2024-02-21T09:35:57;10.07;;;2.63;;
26600;SDS011;14241;49.260;10.496;2024-02-21T09:38:22;7.57;;;2.50;;
26600;SDS011;14241;49.260;10.496;2024-02-21T09:40:52;8.57;;;2.80;;
26600;SDS011;14241;49.260;10.496;2024-02-21T09:43:18;12.52;;;2.75;;
26600;SDS011;14241;49.260;10.496;2024-02-21T09:45:46;11.63;;;3.35;;
26600;SDS011;14241;49.260;10.496;2024-02-21T09:48:32;9.40;;;2.60;;
26600;SDS011;14241;49.260;10.496;2024-02-21T09:50:59;8.50;;;2.13;;
26600;SDS011;14241;49.260;10.496;2024-02-21T09:53:25;14.43;;;2.97;;
26600;SDS011;14241;49.260;10.496;2024-02-21T09:55:51;9.90;;;3.28;;
26600;SDS011;14241;49.260;10.496;2024-02-21T09:58:17;8.30;;;2.65;;
26600;SDS011;14241;49.260;10.496;2024-02-21T10:00:43;9.55;;;2.53;;
26600;SDS011;14241;49.260;10.496;2024-02-21T10:03:08;7.93;;;2.50;;
26600;SDS011;14241;49.260;10.496;2024-02-21T10:05:34;10.40;;;2.58;;
26600;SDS011;14241;49.260;10.496;2024-02-21T10:08:00;6.55;;;1.90;;
26600;SDS011;14241;49.260;10.496;2024-02-21T10:10:26;10.07;;;2.20;;
26600;SDS011;14241;49.260;10.496;2024-02-21T10:12:52;7.50;;;2.72;;
26600;SDS011;14241;49.260;10.496;2024-02-21T10:15:21;14.90;;;3.30;;
26600;SDS011;14241;49.260;10.496;2024-02-21T10:17:48;5.30;;;2.10;;
26600;SDS011;14241;49.260;10.496;2024-02-21T10:20:13;8.00;;;2.40;;
26600;SDS011;14241;49.260;10.496;2024-02-21T10:22:40;9.85;;;2.45;;
26600;SDS011;14241;49.260;10.496;2024-02-21T10:25:09;7.78;;;2.17;;
26600;SDS011;14241;49.260;10.496;2024-02-21T10:27:34;8.00;;;2.20;;
26600;SDS011;14241;49.260;10.496;2024-02-21T10:30:00;7.38;;;2.40;;
26600;SDS011;14241;49.260;10.496;2024-02-21T10:32:25;7.15;;;2.25;;
26600;SDS011;14241;49.260;10.496;2024-02-21T10:35:00;11.98;;;2.58;;
26600;SDS011;14241;49.260;10.496;2024-02-21T10:37:25;5.75;;;1.95;;
26600;SDS011;14241;49.260;10.496;2024-02-21T10:39:50;8.23;;;2.20;;
26600;SDS011;14241;49.260;10.496;2024-02-21T10:42:16;9.60;;;2.75;;
26600;SDS011;14241;49.260;10.496;2024-02-21T10:44:46;7.05;;;2.47;;
26600;SDS011;14241;49.260;10.496;2024-02-21T10:47:13;7.38;;;2.03;;
26600;SDS011;14241;49.260;10.496;2024-02-21T10:49:40;6.60;;;2.10;;
26600;SDS011;14241;49.260;10.496;2024-02-21T10:56:59;7.60;;;1.92;;
26600;SDS011;14241;49.260;10.496;2024-02-21T10:59:25;6.13;;;2.10;;
26600;SDS011;14241;49.260;10.496;2024-02-21T11:01:52;4.82;;;2.22;;
26600;SDS011;14241;49.260;10.496;2024-02-21T11:04:17;10.07;;;2.80;;
26600;SDS011;14241;49.260;10.496;2024-02-21T11:06:43;7.47;;;2.50;;
26600;SDS011;14241;49.260;10.496;2024-02-21T11:09:09;10.65;;;2.70;;
26600;SDS011;14241;49.260;10.496;2024-02-21T11:16:35;8.05;;;2.40;;
26600;SDS011;14241;49.260;10.496;2024-02-21T11:21:36;5.40;;;1.70;;
26600;SDS011;14241;49.260;10.496;2024-02-21T11:24:02;5.93;;;1.92;;
26600;SDS011;14241;49.260;10.496;2024-02-21T11:26:28;5.03;;;1.80;;
26600;SDS011;14241;49.260;10.496;2024-02-21T11:31:22;6.15;;;1.90;;
26600;SDS011;14241;49.260;10.496;2024-02-21T11:33:48;6.50;;;1.80;;
26600;SDS011;14241;49.260;10.496;2024-02-21T11:36:26;6.20;;;1.90;;
26600;SDS011;14241;49.260;10.496;2024-02-21T11:38:52;7.65;;;2.28;;
26600;SDS011;14241;49.260;10.496;2024-02-21T11:41:18;5.53;;;1.80;;
26600;SDS011;14241;49.260;10.496;2024-02-21T11:43:44;6.10;;;1.75;;
26600;SDS011;14241;49.260;10.496;2024-02-21T11:46:09;7.10;;;2.03;;
26600;SDS011;14241;49.260;10.496;2024-02-21T11:48:34;9.43;;;2.33;;
26600;SDS011;14241;49.260;10.496;2024-02-21T11:51:00;5.15;;;2.10;;
26600;SDS011;14241;49.260;10.496;2024-02-21T11:53:26;7.45;;;2.10;;
26600;SDS011;14241;49.260;10.496;2024-02-21T11:55:56;5.50;;;1.70;;
26600;SDS011;14241;49.260;10.496;2024-02-21T11:58:22;4.75;;;1.63;;
26600;SDS011;14241;49.260;10.496;2024-02-21T12:00:47;5.93;;;1.77;;
26600;SDS011;14241;49.260;10.496;2024-02-21T12:03:13;6.75;;;1.85;;
26600;SDS011;14241;49.260;10.496;2024-02-21T12:05:38;7.82;;;1.88;;
26600;SDS011;14241;49.260;10.496;2024-02-21T12:08:04;4.82;;;1.67;;
26600;SDS011;14241;49.260;10.496;2024-02-21T12:10:29;5.53;;;1.60;;
26600;SDS011;14241;49.260;10.496;2024-02-21T12:13:04;5.22;;;1.42;;
26600;SDS011;14241;49.260;10.496;2024-02-21T12:15:30;5.30;;;1.70;;
26600;SDS011;14241;49.260;10.496;2024-02-21T12:17:56;5.13;;;1.75;;
26600;SDS011;14241;49.260;10.496;2024-02-21T12:20:21;4.05;;;1.35;;
26600;SDS011;14241;49.260;10.496;2024-02-21T12:22:48;5.85;;;1.73;;
26600;SDS011;14241;49.260;10.496;2024-02-21T12:25:18;4.60;;;1.90;;
26600;SDS011;14241;49.260;10.496;2024-02-21T12:27:44;7.32;;;2.25;;
26600;SDS011;14241;49.260;10.496;2024-02-21T12:30:10;5.22;;;2.10;;
26600;SDS011;14241;49.260;10.496;2024-02-21T12:32:35;6.65;;;1.70;;
26600;SDS011;14241;49.260;10.496;2024-02-21T12:35:01;7.70;;;1.88;;
26600;SDS011;14241;49.260;10.496;2024-02-21T12:37:27;6.68;;;2.00;;
26600;SDS011;14241;49.260;10.496;2024-02-21T12:39:52;3.72;;;1.40;;
26600;SDS011;14241;49.260;10.496;2024-02-21T12:42:18;4.40;;;1.60;;
26600;SDS011;14241;49.260;10.496;2024-02-21T12:44:43;5.03;;;1.92;;
26600;SDS011;14241;49.260;10.496;2024-02-21T12:47:08;4.85;;;1.77;;
26600;SDS011;14241;49.260;10.496;2024-02-21T12:49:34;7.57;;;2.00;;
26600;SDS011;14241;49.260;10.496;2024-02-21T12:51:59;5.68;;;1.70;;
26600;SDS011;14241;49.260;10.496;2024-02-21T12:54:24;5.47;;;1.90;;
26600;SDS011;14241;49.260;10.496;2024-02-21T12:56:51;6.47;;;1.90;;
26600;SDS011;14241;49.260;10.496;2024-02-21T12:59:16;3.78;;;1.65;;
26600;SDS011;14241;49.260;10.496;2024-02-21T13:01:42;7.35;;;1.77;;
26600;SDS011;14241;49.260;10.496;2024-02-21T13:04:07;3.95;;;1.90;;
26600;SDS011;14241;49.260;10.496;2024-02-21T13:06:32;6.82;;;1.90;;
26600;SDS011;14241;49.260;10.496;2024-02-21T13:08:58;6.75;;;2.20;;
26600;SDS011;14241;49.260;10.496;2024-02-21T13:11:24;4.70;;;1.50;;
26600;SDS011;14241;49.260;10.496;2024-02-21T13:13:52;4.68;;;1.60;;
26600;SDS011;14241;49.260;10.496;2024-02-21T13:16:18;4.45;;;2.38;;
26600;SDS011;14241;49.260;10.496;2024-02-21T13:18:43;3.78;;;1.63;;
26600;SDS011;14241;49.260;10.496;2024-02-21T13:21:10;3.65;;;1.52;;
26600;SDS011;14241;49.260;10.496;2024-02-21T13:23:35;4.60;;;1.55;;
26600;SDS011;14241;49.260;10.496;2024-02-21T13:26:01;7.13;;;3.10;;
26600;SDS011;14241;49.260;10.496;2024-02-21T13:28:26;3.60;;;1.27;;
26600;SDS011;14241;49.260;10.496;2024-02-21T13:30:52;3.30;;;1.40;;
26600;SDS011;14241;49.260;10.496;2024-02-21T13:33:18;5.88;;;1.30;;
26600;SDS011;14241;49.260;10.496;2024-02-21T13:35:43;8.07;;;3.58;;
26600;SDS011;14241;49.260;10.496;2024-02-21T13:38:08;5.63;;;1.50;;
26600;SDS011;14241;49.260;10.496;2024-02-21T13:40:35;3.00;;;1.55;;
26600;SDS011;14241;49.260;10.496;2024-02-21T13:43:00;4.75;;;1.58;;
26600;SDS011;14241;49.260;10.496;2024-02-21T13:45:26;5.82;;;1.52;;
26600;SDS011;14241;49.260;10.496;2024-02-21T13:47:51;4.95;;;1.27;;
26600;SDS011;14241;49.260;10.496;2024-02-21T13:50:17;3.72;;;1.35;;
26600;SDS011;14241;49.260;10.496;2024-02-21T13:52:43;5.10;;;1.98;;
26600;SDS011;14241;49.260;10.496;2024-02-21T13:55:08;4.45;;;1.60;;
26600;SDS011;14241;49.260;10.496;2024-02-21T13:57:36;5.82;;;1.92;;
26600;SDS011;14241;49.260;10.496;2024-02-21T14:00:05;6.68;;;1.73;;
26600;SDS011;14241;49.260;10.496;2024-02-21T14:02:31;5.53;;;1.90;;
26600;SDS011;14241;49.260;10.496;2024-02-21T14:04:56;4.40;;;1.83;;
26600;SDS011;14241;49.260;10.496;2024-02-21T14:07:21;4.43;;;1.45;;
26600;SDS011;14241;49.260;10.496;2024-02-21T14:09:47;4.70;;;1.30;;
26600;SDS011;14241;49.260;10.496;2024-02-21T14:12:12;3.25;;;1.10;;
26600;SDS011;14241;49.260;10.496;2024-02-21T14:14:37;5.22;;;1.58;;
26600;SDS011;14241;49.260;10.496;2024-02-21T14:17:03;2.75;;;1.10;;
26600;SDS011;14241;49.260;10.496;2024-02-21T14:19:29;2.92;;;1.30;;
26600;SDS011;14241;49.260;10.496;2024-02-21T14:21:54;2.63;;;1.20;;
26600;SDS011;14241;49.260;10.496;2024-02-21T14:24:19;3.10;;;1.20;;
26600;SDS011;14241;49.260;10.496;2024-02-21T14:26:45;6.00;;;1.88;;
26600;SDS011;14241;49.260;10.496;2024-02-21T14:29:10;3.17;;;1.20;;
26600;SDS011;14241;49.260;10.496;2024-02-21T14:31:35;2.65;;;1.30;;